Votuporanga, Brazil
Current Conditions -  °F | °C
As of 1:00 AM on Tuesday 23 Dec 2014 (Local Time) from SBSR Reporting Station
Overcast Overcast  
Wind Chill: 73°   Ceiling: 10000
Heat Index: 73°   Visibility: 5mi
Dew Point: 70°   Wind: 0mph
Humidity: 88%   Direction: NA
Pressure: 29.94"   Gusts: NA
Location:  20.42°S, 49.98°W
Report Text: SBSR 230300Z 00000KT 8000 SCT005 SCT017 OVC100 23/21 Q1014
Loading
Personal Weather Stations






























Interactive Weather Map New forecast layout! Learn more

10-Day Weather Forecast

Advertisements
Track Severe Weather on mobile